Time;durP1;ratioP1;P1;durP2;ratioP2;P2;SDS_P1;SDS_P2;PMS_P1;PMS_P2;Temp;Humidity;BMP_temperature;BMP_pressure;BME280_temperature;BME280_humidity;BME280_pressure;Samples;Min_cycle;Max_cycle;Signal;HPM_P1;HPM_P2
2022/07/24 13:00:58;;;;;;;;;;;;;;;29.12;51.87;96956.06;4232841;27;10373;-72
2022/07/24 13:03:02;;;;;;;;;;;;;;;29.41;51.26;96948.25;4216729;27;6426;-74
2022/07/24 13:05:05;;;;;;;;;;;;;;;29.65;51.00;96947.13;4217934;27;5931;-69
2022/07/24 13:07:10;;;;;;;;;;;;;;;29.79;50.54;96947.88;4224137;27;5762;-65
2022/07/24 13:09:15;;;;;;;;;;;;;;;29.91;50.44;96944.56;4214911;28;5778;-66
2022/07/24 13:11:18;;;;;;;;;;;;;;;30.01;50.11;96945.06;4235866;27;5784;-66
2022/07/24 13:13:21;;;;;;;;;;;;;;;30.08;49.79;96945.47;4230472;27;6483;-67
2022/07/24 13:15:23;;;;;;;;;;;;;;;30.15;49.52;96939.56;4225518;27;5795;-67
2022/07/24 13:17:28;;;;;;;;;;;;;;;30.20;49.44;96936.69;4239390;27;5724;-67
2022/07/24 13:19:31;;;;;;;;;;;;;;;30.26;49.10;96926.44;4243336;27;6122;-66
2022/07/24 13:21:34;;;;;;;;;;;;;;;30.30;48.94;96920.03;4232155;27;6498;-67
2022/07/24 13:23:37;;;;;;;;;;;;;;;30.34;48.72;96925.63;4225721;27;5913;-68
2022/07/24 13:25:44;;;;;;;;;;;;;;;30.37;48.60;96922.28;4225946;27;7816;-69
2022/07/24 13:27:47;;;;;;;;;;;;;;;30.40;48.17;96916.19;4243063;27;5752;-67
2022/07/24 13:30:12;;;;;;;;;;;;;;;30.42;48.00;96916.69;4221941;27;5762;-67
2022/07/24 13:32:15;;;;;;;;;;;;;;;30.45;48.25;96910.56;4220798;27;5802;-67
2022/07/24 13:34:25;;;;;;;;;;;;;;;30.49;47.87;96910.78;4211624;28;5918;-67
2022/07/24 13:36:29;;;;;;;;;;;;;;;30.53;47.85;96906.28;4217639;27;5758;-67
2022/07/24 13:38:32;;;;;;;;;;;;;;;30.55;47.49;96907.56;4234524;27;7740;-67
2022/07/24 13:40:36;;;;;;;;;;;;;;;30.58;47.23;96906.94;4218754;27;5807;-67
2022/07/24 13:42:40;;;;;;;;;;;;;;;30.59;47.04;96900.34;4227164;27;5766;-67
2022/07/24 13:44:42;;;;;;;;;;;;;;;30.61;47.21;96898.09;4226056;27;6507;-67
2022/07/24 13:46:46;;;;;;;;;;;;;;;30.63;46.64;96895.88;4227353;27;5774;-68
2022/07/24 13:48:51;;;;;;;;;;;;;;;30.65;46.54;96893.63;4227413;27;5771;-68
2022/07/24 13:51:01;;;;;;;;;;;;;;;30.66;46.62;96884.31;4227082;27;5916;-68
2022/07/24 13:53:05;;;;;;;;;;;;;;;30.72;46.47;96887.72;4221639;27;5801;-65
2022/07/24 13:55:08;;;;;;;;;;;;;;;30.76;46.15;96887.84;4225102;27;5763;-67
2022/07/24 13:57:13;;;;;;;;;;;;;;;30.77;45.88;96876.63;4224092;27;5838;-67
2022/07/24 13:59:16;;;;;;;;;;;;;;;30.77;46.00;96873.09;4223293;27;5762;-67
2022/07/24 14:01:19;;;;;;;;;;;;;;;30.77;46.08;96873.88;4211707;27;5824;-67
2022/07/24 14:03:39;;;;;;;;;;;;;;;30.78;45.47;96869.22;4212432;28;7889;-68
2022/07/24 14:06:04;;;;;;;;;;;;;;;30.78;45.66;96864.56;4214437;28;5762;-68
2022/07/24 14:08:08;;;;;;;;;;;;;;;30.79;45.68;96871.63;4209699;28;5766;-68
2022/07/24 14:10:11;;;;;;;;;;;;;;;30.81;45.37;96861.22;4216645;28;5814;-68
2022/07/24 14:12:14;;;;;;;;;;;;;;;30.83;45.48;96860.91;4210188;28;5786;-69
2022/07/24 14:14:17;;;;;;;;;;;;;;;30.85;45.15;96859.44;4210681;28;5902;-68
2022/07/24 14:16:21;;;;;;;;;;;;;;;30.83;44.90;96856.25;4224152;28;5822;-67
2022/07/24 14:18:24;;;;;;;;;;;;;;;30.85;44.93;96853.19;4210494;28;5884;-67
2022/07/24 14:20:27;;;;;;;;;;;;;;;30.88;44.75;96852.53;4213162;28;5758;-67
2022/07/24 14:22:31;;;;;;;;;;;;;;;30.88;44.38;96852.53;4209763;28;5783;-68
2022/07/24 14:24:34;;;;;;;;;;;;;;;30.86;44.47;96838.41;4215100;28;5902;-67
2022/07/24 14:26:42;;;;;;;;;;;;;;;30.86;44.68;96838.41;4214271;27;5782;-68
2022/07/24 14:28:45;;;;;;;;;;;;;;;30.88;44.52;96838.88;4205078;28;7374;-68
2022/07/24 14:30:48;;;;;;;;;;;;;;;30.91;44.26;96835.50;4208773;28;5788;-68
2022/07/24 14:32:51;;;;;;;;;;;;;;;30.92;44.42;96831.66;4204962;28;5795;-69
2022/07/24 14:34:54;;;;;;;;;;;;;;;30.94;44.55;96834.88;4214595;28;5759;-68
2022/07/24 14:36:57;;;;;;;;;;;;;;;30.96;44.05;96829.91;4205692;28;5929;-69
2022/07/24 14:39:01;;;;;;;;;;;;;;;30.98;43.72;96822.19;4202818;28;5807;-69
2022/07/24 14:41:04;;;;;;;;;;;;;;;30.99;43.76;96830.03;4214539;28;5763;-69
2022/07/24 14:43:07;;;;;;;;;;;;;;;31.01;43.88;96829.72;4210281;28;5782;-69
2022/07/24 14:45:10;;;;;;;;;;;;;;;31.00;43.77;96817.19;4205963;28;6177;-68
2022/07/24 14:47:13;;;;;;;;;;;;;;;31.02;43.73;96820.38;4204326;28;5792;-68
2022/07/24 14:49:16;;;;;;;;;;;;;;;31.03;43.31;96816.53;4207220;28;5781;-68
2022/07/24 14:51:20;;;;;;;;;;;;;;;31.06;42.93;96820.56;4200621;28;5740;-68
2022/07/24 14:53:22;;;;;;;;;;;;;;;31.05;43.13;96816.22;4196810;28;5814;-68
2022/07/24 14:55:27;;;;;;;;;;;;;;;31.05;42.96;96814.31;4198545;28;5825;-68
2022/07/24 14:57:29;;;;;;;;;;;;;;;31.06;43.15;96813.19;4198776;28;5832;-69
2022/07/24 14:59:32;;;;;;;;;;;;;;;31.09;42.78;96815.25;4198297;28;5791;-68
2022/07/24 15:01:36;;;;;;;;;;;;;;;31.08;42.84;96801.94;4198815;28;5779;-68
2022/07/24 15:03:41;;;;;;;;;;;;;;;31.08;42.57;96805.47;4199022;28;5804;-69
2022/07/24 15:05:44;;;;;;;;;;;;;;;31.08;42.84;96801.94;4198685;28;5775;-69
2022/07/24 15:07:47;;;;;;;;;;;;;;;31.09;42.81;96803.53;4206386;28;6111;-69
2022/07/24 15:09:49;;;;;;;;;;;;;;;31.10;42.81;96802.41;4215653;28;5793;-69
2022/07/24 15:11:54;;;;;;;;;;;;;;;31.10;42.97;96805.13;4215052;28;5770;-69
2022/07/24 15:13:57;;;;;;;;;;;;;;;31.11;42.49;96804.00;4215315;28;5773;-69
2022/07/24 15:16:00;;;;;;;;;;;;;;;31.13;42.30;96794.34;4215358;28;5783;-68
2022/07/24 15:18:03;;;;;;;;;;;;;;;31.17;42.50;96792.59;4213753;28;5785;-69
2022/07/24 15:20:07;;;;;;;;;;;;;;;31.19;42.42;96789.53;4214930;28;6494;-68
2022/07/24 15:22:12;;;;;;;;;;;;;;;31.17;42.32;96791.78;4215256;28;6774;-69
2022/07/24 15:24:15;;;;;;;;;;;;;;;31.17;42.39;96792.59;4212402;28;5863;-68
2022/07/24 15:26:18;;;;;;;;;;;;;;;31.18;41.94;96786.00;4198703;28;5704;-68
2022/07/24 15:28:22;;;;;;;;;;;;;;;31.18;42.23;96791.47;4198416;28;5822;-68
2022/07/24 15:30:25;;;;;;;;;;;;;;;31.17;42.16;96784.41;4198239;28;7806;-68
2022/07/24 15:32:31;;;;;;;;;;;;;;;31.16;41.90;96780.06;4198588;28;5865;-68
2022/07/24 15:34:34;;;;;;;;;;;;;;;31.16;42.27;96782.78;4198465;28;5847;-68
2022/07/24 15:36:38;;;;;;;;;;;;;;;31.17;41.95;96773.47;4210130;28;5770;-68
2022/07/24 15:38:41;;;;;;;;;;;;;;;31.17;42.10;96772.69;4215120;28;5771;-68
2022/07/24 15:40:44;;;;;;;;;;;;;;;31.17;42.00;96776.19;4215292;28;5835;-68
2022/07/24 15:42:46;;;;;;;;;;;;;;;31.14;42.05;96768.66;4214841;28;5758;-68
2022/07/24 15:44:51;;;;;;;;;;;;;;;31.17;41.80;96767.22;4213052;28;7718;-68
2022/07/24 15:46:54;;;;;;;;;;;;;;;31.16;41.74;96769.16;4213209;28;5793;-68
2022/07/24 15:48:57;;;;;;;;;;;;;;;31.18;41.66;96760.63;4214645;28;5765;-68
2022/07/24 15:51:06;;;;;;;;;;;;;;;31.20;41.68;96766.59;4222776;28;7688;-68
2022/07/24 15:53:09;;;;;;;;;;;;;;;31.23;41.32;96760.47;4231462;27;5777;-68
2022/07/24 15:55:12;;;;;;;;;;;;;;;31.22;40.93;96754.19;4222913;27;5787;-68
2022/07/24 15:57:22;;;;;;;;;;;;;;;31.22;40.67;96754.19;4214647;28;5754;-67
2022/07/24 15:59:25;;;;;;;;;;;;;;;31.24;40.35;96756.59;4221048;28;6552;-69
2022/07/24 16:01:29;;;;;;;;;;;;;;;31.22;39.98;96750.66;4231564;27;5674;-67
2022/07/24 16:03:49;;;;;;;;;;;;;;;31.20;39.85;96744.75;4231762;27;5072;-68
2022/07/24 16:05:52;;;;;;;;;;;;;;;31.20;39.28;96750.19;4231356;28;5744;-68
2022/07/24 16:07:55;;;;;;;;;;;;;;;31.20;39.30;96751.00;4231119;27;5786;-68
2022/07/24 16:09:58;;;;;;;;;;;;;;;31.19;38.46;96746.66;4231418;27;5969;-69
2022/07/24 16:12:01;;;;;;;;;;;;;;;31.19;38.31;96743.94;4231414;27;5741;-68
2022/07/24 16:14:05;;;;;;;;;;;;;;;31.18;38.45;96741.50;4231415;27;5752;-69
2022/07/24 16:16:10;;;;;;;;;;;;;;;31.19;38.01;96748.56;4231534;28;5468;-69
2022/07/24 16:18:14;;;;;;;;;;;;;;;31.19;37.31;96735.75;4231260;27;5838;-69
2022/07/24 16:20:18;;;;;;;;;;;;;;;31.23;37.17;96744.88;4229308;28;7210;-69
2022/07/24 16:22:21;;;;;;;;;;;;;;;31.23;36.87;96738.63;4231454;27;5788;-68
2022/07/24 16:24:24;;;;;;;;;;;;;;;31.21;36.65;96735.41;4227410;28;5782;-69
2022/07/24 16:26:27;;;;;;;;;;;;;;;31.19;36.55;96724.00;4212871;28;5790;-69
2022/07/24 16:28:30;;;;;;;;;;;;;;;31.17;36.73;96729.78;4214065;28;5860;-68
2022/07/24 16:30:33;;;;;;;;;;;;;;;31.16;36.28;96728.19;4214384;28;5818;-69
2022/07/24 16:32:36;;;;;;;;;;;;;;;31.15;36.51;96723.84;4214578;28;5730;-69
2022/07/24 16:34:40;;;;;;;;;;;;;;;31.14;36.15;96721.44;4214350;28;5750;-69
2022/07/24 16:36:43;;;;;;;;;;;;;;;31.13;36.05;96717.91;4213755;28;5789;-68
2022/07/24 16:38:46;;;;;;;;;;;;;;;31.14;36.25;96714.03;4214370;28;6193;-68
2022/07/24 16:40:49;;;;;;;;;;;;;;;31.13;35.66;96712.44;4214456;28;5770;-68
2022/07/24 16:42:52;;;;;;;;;;;;;;;31.13;35.79;96712.44;4214331;28;5683;-68
2022/07/24 16:44:55;;;;;;;;;;;;;;;31.11;35.78;96714.69;4214478;28;5750;-69
2022/07/24 16:46:59;;;;;;;;;;;;;;;31.11;35.51;96711.16;4214260;28;5841;-69
2022/07/24 16:49:01;;;;;;;;;;;;;;;31.11;35.42;96705.72;4213820;28;6467;-69
2022/07/24 16:51:06;;;;;;;;;;;;;;;31.11;35.38;96706.50;4220458;28;5881;-69
2022/07/24 16:53:29;;;;;;;;;;;;;;;31.10;35.58;96707.63;4230952;28;5757;-69
2022/07/24 16:55:32;;;;;;;;;;;;;;;31.10;35.27;96710.38;4230810;28;5761;-69
2022/07/24 16:57:35;;;;;;;;;;;;;;;31.10;34.92;96706.84;4231134;27;5744;-69
2022/07/24 16:59:38;;;;;;;;;;;;;;;31.10;34.93;96713.09;4230597;28;5757;-69
2022/07/24 17:01:41;;;;;;;;;;;;;;;31.08;35.19;96707.16;4231059;27;5760;-69
2022/07/24 17:03:44;;;;;;;;;;;;;;;31.09;34.86;96711.50;4231133;27;5756;-69
2022/07/24 17:05:47;;;;;;;;;;;;;;;31.07;34.41;96708.31;4230699;28;6466;-69
2022/07/24 17:07:51;;;;;;;;;;;;;;;31.06;34.54;96706.69;4224535;28;5840;-69
2022/07/24 17:09:54;;;;;;;;;;;;;;;31.05;34.13;96702.38;4213956;28;5787;-69
2022/07/24 17:11:57;;;;;;;;;;;;;;;31.05;34.14;96716.03;4214021;28;5754;-69
2022/07/24 17:14:00;;;;;;;;;;;;;;;31.06;33.60;96711.38;4214033;28;5770;-69
2022/07/24 17:16:05;;;;;;;;;;;;;;;31.05;33.69;96705.09;4214111;28;5782;-69
2022/07/24 17:18:09;;;;;;;;;;;;;;;31.05;33.28;96710.56;4213970;28;5769;-69
2022/07/24 17:20:12;;;;;;;;;;;;;;;31.04;33.64;96708.97;4213559;28;5822;-67
2022/07/24 17:22:21;;;;;;;;;;;;;;;31.04;33.46;96711.69;4208293;28;5821;-69
2022/07/24 17:24:26;;;;;;;;;;;;;;;31.03;33.44;96712.78;4214807;28;5767;-69
2022/07/24 17:26:29;;;;;;;;;;;;;;;31.04;33.15;96708.97;4217846;28;5799;-69
2022/07/24 17:28:32;;;;;;;;;;;;;;;31.05;32.68;96709.75;4196953;28;6653;-69
2022/07/24 17:30:36;;;;;;;;;;;;;;;31.06;32.95;96706.69;4199341;28;5788;-69
2022/07/24 17:32:39;;;;;;;;;;;;;;;31.07;32.63;96707.50;4212132;28;5801;-69
2022/07/24 17:34:48;;;;;;;;;;;;;;;31.09;32.54;96708.78;4205499;28;5798;-69
2022/07/24 17:36:51;;;;;;;;;;;;;;;31.12;32.79;96710.03;4209817;28;5892;-68
2022/07/24 17:38:53;;;;;;;;;;;;;;;31.13;32.63;96706.97;4204892;28;5778;-69
2022/07/24 17:40:58;;;;;;;;;;;;;;;31.13;32.29;96711.63;4200325;28;5783;-69
2022/07/24 17:43:01;;;;;;;;;;;;;;;31.14;32.45;96708.56;4204007;28;5778;-69
2022/07/24 17:45:04;;;;;;;;;;;;;;;31.15;32.39;96704.75;4216692;28;7691;-69
2022/07/24 17:47:07;;;;;;;;;;;;;;;31.16;32.39;96709.06;4232264;27;5827;-69
2022/07/24 17:49:11;;;;;;;;;;;;;;;31.17;32.03;96710.66;4233334;28;6410;-69
2022/07/24 17:51:20;;;;;;;;;;;;;;;31.18;32.06;96712.28;4224072;28;6199;-69
2022/07/24 17:53:23;;;;;;;;;;;;;;;31.19;32.19;96711.16;4216395;28;5892;-69
2022/07/24 17:55:26;;;;;;;;;;;;;;;31.22;31.88;96715.97;4210605;28;5842;-69
2022/07/24 17:57:30;;;;;;;;;;;;;;;31.22;31.83;96710.50;4198143;28;5799;-69
2022/07/24 17:59:33;;;;;;;;;;;;;;;31.22;32.15;96710.50;4206898;28;5777;-69
2022/07/24 18:01:36;;;;;;;;;;;;;;;31.22;31.83;96715.16;4216728;28;5860;-69
2022/07/24 18:03:39;;;;;;;;;;;;;;;31.22;32.43;96715.97;4216734;28;5093;-69
2022/07/24 18:05:42;;;;;;;;;;;;;;;31.21;32.22;96711.63;4216343;28;5809;-69
2022/07/24 18:07:45;;;;;;;;;;;;;;;31.21;32.08;96705.38;4216108;28;5802;-69
2022/07/24 18:09:48;;;;;;;;;;;;;;;31.24;32.11;96713.69;4216240;28;5766;-69
2022/07/24 18:11:51;;;;;;;;;;;;;;;31.23;31.94;96711.31;4216020;28;5902;-69
2022/07/24 18:13:57;;;;;;;;;;;;;;;31.25;32.29;96707.09;4216371;28;5758;-68
2022/07/24 18:16:00;;;;;;;;;;;;;;;31.24;32.37;96708.25;4216330;28;5758;-67
2022/07/24 18:18:03;;;;;;;;;;;;;;;31.25;32.12;96709.03;4214643;28;5993;-69
2022/07/24 18:20:08;;;;;;;;;;;;;;;31.25;32.36;96704.38;4216173;28;5770;-69
2022/07/24 18:22:15;;;;;;;;;;;;;;;31.25;32.20;96707.09;4216237;28;5765;-69
2022/07/24 18:24:19;;;;;;;;;;;;;;;31.25;32.27;96707.09;4216119;28;5762;-69
2022/07/24 18:26:22;;;;;;;;;;;;;;;31.24;32.40;96708.25;4216317;28;5910;-69
2022/07/24 18:28:24;;;;;;;;;;;;;;;31.23;32.21;96705.84;4216289;28;5702;-68
2022/07/24 18:30:29;;;;;;;;;;;;;;;31.19;32.15;96702.97;4216227;28;5788;-69
2022/07/24 18:32:32;;;;;;;;;;;;;;;31.18;32.35;96698.63;4205198;28;8514;-69
2022/07/24 18:34:34;;;;;;;;;;;;;;;31.17;32.57;96704.41;4199312;28;5787;-68
2022/07/24 18:36:38;;;;;;;;;;;;;;;31.15;32.62;96699.28;4198660;28;5776;-68
2022/07/24 18:38:41;;;;;;;;;;;;;;;31.14;32.60;96702.31;4198576;28;5977;-68
2022/07/24 18:40:44;;;;;;;;;;;;;;;31.13;32.54;96700.72;4197576;28;5850;-68
2022/07/24 18:42:47;;;;;;;;;;;;;;;31.11;32.68;96701.03;4198698;28;5775;-69
2022/07/24 18:44:51;;;;;;;;;;;;;;;31.10;32.53;96696.72;4197431;28;5827;-69
2022/07/24 18:46:55;;;;;;;;;;;;;;;31.10;32.82;96696.72;4198927;28;5839;-68
2022/07/24 18:48:58;;;;;;;;;;;;;;;31.12;32.85;96697.19;4197346;28;5885;-69
2022/07/24 18:51:01;;;;;;;;;;;;;;;31.12;32.67;96694.47;4209471;28;5730;-69
2022/07/24 18:53:04;;;;;;;;;;;;;;;31.14;32.53;96694.13;4223452;27;5821;-69
2022/07/24 18:55:08;;;;;;;;;;;;;;;31.14;32.65;96707.78;4231104;28;5780;-69
2022/07/24 18:57:11;;;;;;;;;;;;;;;31.12;32.78;96699.13;4232353;27;6486;-68
2022/07/24 18:59:14;;;;;;;;;;;;;;;31.10;32.93;96696.72;4232281;28;5740;-68
2022/07/24 19:01:17;;;;;;;;;;;;;;;31.09;32.72;96695.13;4232625;28;5835;-68
2022/07/24 19:03:24;;;;;;;;;;;;;;;31.07;32.96;96702.84;4232618;27;5736;-69
2022/07/24 19:05:27;;;;;;;;;;;;;;;31.07;33.16;96702.03;4232126;27;5748;-68
2022/07/24 19:07:30;;;;;;;;;;;;;;;31.04;33.36;96698.03;4232081;27;5745;-68
2022/07/24 19:09:33;;;;;;;;;;;;;;;31.04;33.14;96703.50;4232380;27;5792;-68
2022/07/24 19:11:36;;;;;;;;;;;;;;;31.02;33.44;96703.00;4232274;27;7332;-69
2022/07/24 19:13:39;;;;;;;;;;;;;;;31.02;33.29;96701.06;4232159;27;5753;-69
2022/07/24 19:15:42;;;;;;;;;;;;;;;31.04;33.08;96703.50;4232437;28;5741;-69
2022/07/24 19:17:45;;;;;;;;;;;;;;;31.05;33.40;96698.84;4234858;27;5697;-69
2022/07/24 19:19:49;;;;;;;;;;;;;;;31.04;33.35;96697.25;4234708;27;5646;-69
2022/07/24 19:21:52;;;;;;;;;;;;;;;31.04;33.36;96708.97;4234747;28;5650;-69
2022/07/24 19:23:55;;;;;;;;;;;;;;;31.03;33.49;96701.88;4235101;27;5706;-69
2022/07/24 19:25:59;;;;;;;;;;;;;;;31.02;33.42;96703.00;4234667;28;5662;-69
2022/07/24 19:28:02;;;;;;;;;;;;;;;31.01;33.75;96704.94;4234612;28;5678;-69
2022/07/24 19:30:07;;;;;;;;;;;;;;;31.00;33.52;96706.06;4234900;27;5670;-69
2022/07/24 19:32:10;;;;;;;;;;;;;;;31.00;33.69;96711.53;4234947;28;5650;-69
2022/07/24 19:34:12;;;;;;;;;;;;;;;31.00;33.65;96706.06;4234862;28;5646;-70
2022/07/24 19:36:19;;;;;;;;;;;;;;;31.00;33.59;96702.53;4234689;27;5724;-70
2022/07/24 19:38:22;;;;;;;;;;;;;;;31.00;34.02;96708.00;4234745;28;5671;-69
2022/07/24 19:40:25;;;;;;;;;;;;;;;31.01;33.67;96709.59;4233295;28;5639;-69
2022/07/24 19:42:28;;;;;;;;;;;;;;;31.00;33.76;96702.53;4234768;27;5739;-69
2022/07/24 19:44:31;;;;;;;;;;;;;;;31.00;33.89;96708.00;4234520;27;7643;-70
2022/07/24 19:46:34;;;;;;;;;;;;;;;31.00;34.26;96718.91;4234599;28;5650;-69
2022/07/24 19:48:37;;;;;;;;;;;;;;;30.99;34.29;96711.84;4234340;27;5754;-69
2022/07/24 19:50:40;;;;;;;;;;;;;;;30.98;34.55;96721.19;4231973;27;7747;-69
2022/07/24 19:53:05;;;;;;;;;;;;;;;30.98;34.25;96729.38;4234036;28;5865;-69
2022/07/24 19:55:08;;;;;;;;;;;;;;;30.96;34.49;96721.50;4229873;28;5827;-69
2022/07/24 19:57:11;;;;;;;;;;;;;;;30.96;34.46;96728.91;4217636;28;5678;-69
2022/07/24 19:59:14;;;;;;;;;;;;;;;30.96;34.64;96731.63;4213388;28;5689;-69
2022/07/24 20:01:17;;;;;;;;;;;;;;;30.93;34.67;96724.09;4200573;28;5700;-70
2022/07/24 20:03:20;;;;;;;;;;;;;;;30.94;34.86;96731.16;4200810;28;5677;-69
2022/07/24 20:05:23;;;;;;;;;;;;;;;30.92;34.81;96728.75;4200758;28;5768;-69
2022/07/24 20:07:26;;;;;;;;;;;;;;;30.93;34.87;96735.00;4201113;28;5759;-69
2022/07/24 20:09:31;;;;;;;;;;;;;;;30.92;35.01;96734.22;4217314;28;5668;-67
2022/07/24 20:11:34;;;;;;;;;;;;;;;30.91;35.21;96735.31;4217587;28;5695;-68
2022/07/24 20:13:37;;;;;;;;;;;;;;;30.90;35.20;96733.72;4215937;28;5789;-69
2022/07/24 20:15:40;;;;;;;;;;;;;;;30.89;35.38;96736.78;4217394;28;5667;-69
2022/07/24 20:17:43;;;;;;;;;;;;;;;30.87;35.27;96736.31;4217408;28;5687;-69
2022/07/24 20:19:46;;;;;;;;;;;;;;;30.86;35.42;96742.88;4216996;28;5720;-69
2022/07/24 20:21:50;;;;;;;;;;;;;;;30.85;35.47;96738.56;4216933;28;5749;-69
2022/07/24 20:23:52;;;;;;;;;;;;;;;30.84;35.72;96747.88;4215864;28;5798;-69
2022/07/24 20:25:57;;;;;;;;;;;;;;;30.83;35.50;96746.28;4229295;28;5643;-69
2022/07/24 20:28:05;;;;;;;;;;;;;;;30.82;35.64;96744.69;4234088;27;5641;-69
2022/07/24 20:30:11;;;;;;;;;;;;;;;30.79;35.77;96748.84;4234298;27;5649;-69
2022/07/24 20:32:14;;;;;;;;;;;;;;;30.79;35.71;96748.03;4233917;27;5800;-69
2022/07/24 20:34:17;;;;;;;;;;;;;;;30.76;35.94;96752.22;4234160;28;5212;-68
2022/07/24 20:36:20;;;;;;;;;;;;;;;30.75;35.79;96747.88;4233655;28;5717;-69
2022/07/24 20:38:23;;;;;;;;;;;;;;;30.75;36.11;96749.81;4233846;27;6449;-69
2022/07/24 20:40:26;;;;;;;;;;;;;;;30.74;36.11;96746.28;4233845;27;5721;-69
2022/07/24 20:42:38;;;;;;;;;;;;;;;30.74;36.14;96742.75;4233946;27;5653;-69
2022/07/24 20:44:41;;;;;;;;;;;;;;;30.71;36.27;96746.94;4234129;27;5690;-69
2022/07/24 20:46:44;;;;;;;;;;;;;;;30.69;36.08;96747.28;4233792;28;5658;-68
2022/07/24 20:48:47;;;;;;;;;;;;;;;30.67;36.54;96744.03;4233534;27;5068;-69
2022/07/24 20:50:50;;;;;;;;;;;;;;;30.65;36.27;96751.75;4230449;27;5686;-68
2022/07/24 20:52:53;;;;;;;;;;;;;;;30.64;36.37;96744.69;4230620;27;5846;-69
2022/07/24 20:54:58;;;;;;;;;;;;;;;30.62;36.34;96746.91;4214509;28;5754;-69
2022/07/24 20:57:01;;;;;;;;;;;;;;;30.61;36.69;96756.22;4198725;28;5692;-69
2022/07/24 20:59:06;;;;;;;;;;;;;;;30.58;36.45;96754.16;4201828;28;5066;-68
2022/07/24 21:01:09;;;;;;;;;;;;;;;30.58;36.52;96748.69;4233931;28;5745;-68
2022/07/24 21:03:12;;;;;;;;;;;;;;;30.59;36.78;96755.75;4234031;27;5072;-68
2022/07/24 21:05:15;;;;;;;;;;;;;;;30.58;36.66;96753.31;4233678;27;5779;-68
2022/07/24 21:07:18;;;;;;;;;;;;;;;30.56;36.58;96759.13;4233381;28;5681;-68
2022/07/24 21:09:20;;;;;;;;;;;;;;;30.56;36.43;96752.84;4233763;28;5670;-68
2022/07/24 21:11:23;;;;;;;;;;;;;;;30.53;36.45;96751.59;4235791;28;5645;-68
2022/07/24 21:13:26;;;;;;;;;;;;;;;30.54;36.89;96760.56;4237256;27;5661;-68
2022/07/24 21:15:30;;;;;;;;;;;;;;;30.51;36.64;96761.22;4237126;27;5737;-68
2022/07/24 21:17:33;;;;;;;;;;;;;;;30.50;36.53;96763.16;4237278;27;5650;-68
2022/07/24 21:19:36;;;;;;;;;;;;;;;30.49;36.60;96764.28;4235435;28;5764;-68
2022/07/24 21:21:39;;;;;;;;;;;;;;;30.50;36.76;96760.41;4236706;27;5741;-68
2022/07/24 21:23:42;;;;;;;;;;;;;;;30.51;36.87;96766.69;4237083;27;5671;-68
2022/07/24 21:25:45;;;;;;;;;;;;;;;30.49;37.04;96764.28;4226571;27;5663;-68
2022/07/24 21:27:48;;;;;;;;;;;;;;;30.49;36.80;96768.94;4219856;28;8033;-68
2022/07/24 21:29:51;;;;;;;;;;;;;;;30.49;36.87;96764.28;4219799;28;5671;-68
2022/07/24 21:31:56;;;;;;;;;;;;;;;30.48;37.11;96761.88;4220115;28;5663;-68
2022/07/24 21:33:59;;;;;;;;;;;;;;;30.48;36.92;96764.59;4219867;28;5770;-68
2022/07/24 21:36:02;;;;;;;;;;;;;;;30.46;37.02;96759.44;4219559;28;5663;-68
2022/07/24 21:38:05;;;;;;;;;;;;;;;30.46;36.98;96766.81;4219803;28;5667;-68
2022/07/24 21:40:08;;;;;;;;;;;;;;;30.46;37.13;96769.53;4218676;28;5770;-68
2022/07/24 21:42:11;;;;;;;;;;;;;;;30.44;36.86;96761.69;4219696;28;6020;-68
2022/07/24 21:44:14;;;;;;;;;;;;;;;30.42;37.00;96770.19;4220181;28;5679;-68
2022/07/24 21:46:17;;;;;;;;;;;;;;;30.42;36.93;96772.94;4219814;28;5727;-68
2022/07/24 21:48:22;;;;;;;;;;;;;;;30.42;37.04;96769.41;4219867;28;5667;-69
2022/07/24 21:50:44;;;;;;;;;;;;;;;30.41;37.03;96774.06;4219816;28;5946;-69
2022/07/24 21:52:47;;;;;;;;;;;;;;;30.41;37.16;96773.25;4221491;28;5829;-68
2022/07/24 21:54:50;;;;;;;;;;;;;;;30.38;37.13;96774.69;4219419;28;5801;-69
2022/07/24 21:56:53;;;;;;;;;;;;;;;30.38;37.15;96779.34;4236768;27;5666;-69
2022/07/24 21:58:55;;;;;;;;;;;;;;;30.36;37.16;96779.69;4236122;27;5630;-68
2022/07/24 22:00:59;;;;;;;;;;;;;;;30.36;37.05;96782.41;4236074;27;5661;-68
2022/07/24 22:03:02;;;;;;;;;;;;;;;30.35;37.33;96780.81;4236394;27;5663;-68
2022/07/24 22:05:07;;;;;;;;;;;;;;;30.33;37.27;96788.47;4236362;27;5634;-68
2022/07/24 22:07:10;;;;;;;;;;;;;;;30.33;37.33;96785.75;4236167;27;6398;-68
2022/07/24 22:09:13;;;;;;;;;;;;;;;30.32;37.31;96775.97;4236183;27;5670;-69
2022/07/24 22:11:16;;;;;;;;;;;;;;;30.32;37.63;96786.09;4236442;27;5654;-68
2022/07/24 22:13:19;;;;;;;;;;;;;;;30.31;37.48;96779.03;4236287;27;5080;-68
2022/07/24 22:15:22;;;;;;;;;;;;;;;30.29;37.60;96778.56;4236166;28;5808;-68
2022/07/24 22:17:25;;;;;;;;;;;;;;;30.27;37.67;96786.25;4236309;27;5642;-68
2022/07/24 22:19:27;;;;;;;;;;;;;;;30.24;37.75;96784.97;4235847;27;5705;-69
2022/07/24 22:21:37;;;;;;;;;;;;;;;30.23;38.01;96788.00;4235473;28;5661;-68
2022/07/24 22:23:41;;;;;;;;;;;;;;;30.22;37.94;96786.41;4236197;27;5123;-69
2022/07/24 22:25:44;;;;;;;;;;;;;;;30.22;38.10;96798.09;4236121;27;5638;-69
2022/07/24 22:27:46;;;;;;;;;;;;;;;30.23;38.10;96790.72;4235973;27;5169;-68
2022/07/24 22:29:49;;;;;;;;;;;;;;;30.21;38.20;96795.69;4235797;27;5662;-68
2022/07/24 22:31:52;;;;;;;;;;;;;;;30.21;38.49;96796.50;4236160;28;5752;-68
2022/07/24 22:33:55;;;;;;;;;;;;;;;30.22;38.51;96794.56;4236154;28;5733;-68
2022/07/24 22:35:59;;;;;;;;;;;;;;;30.22;38.78;96794.56;4235470;27;5642;-68
2022/07/24 22:38:04;;;;;;;;;;;;;;;30.21;38.83;96799.22;4236054;27;6416;-68
2022/07/24 22:40:10;;;;;;;;;;;;;;;30.22;39.00;96797.31;4236338;28;5740;-68
2022/07/24 22:42:23;;;;;;;;;;;;;;;30.21;39.26;96801.16;4235819;28;5654;-68
2022/07/24 22:44:26;;;;;;;;;;;;;;;30.20;39.35;96802.28;4235694;27;5094;-68
2022/07/24 22:46:32;;;;;;;;;;;;;;;30.19;39.58;96797.94;4235722;28;5650;-68
2022/07/24 22:48:35;;;;;;;;;;;;;;;30.18;39.51;96799.06;4235462;28;5674;-68
2022/07/24 22:50:41;;;;;;;;;;;;;;;30.17;40.02;96797.47;4234020;28;5653;-69
2022/07/24 22:52:48;;;;;;;;;;;;;;;30.11;40.04;96794.88;4231811;28;5654;-69
2022/07/24 22:54:54;;;;;;;;;;;;;;;30.08;40.04;96800.19;4235526;28;5662;-69
2022/07/24 22:56:57;;;;;;;;;;;;;;;30.07;40.00;96798.56;4235669;28;5052;-70
2022/07/24 22:59:04;;;;;;;;;;;;;;;30.08;40.30;96805.63;4234970;27;5765;-68
2022/07/24 23:01:07;;;;;;;;;;;;;;;30.07;40.37;96813.00;4235014;27;6303;-69
2022/07/24 23:03:10;;;;;;;;;;;;;;;30.05;40.29;96811.69;4235444;27;5709;-69
2022/07/24 23:05:13;;;;;;;;;;;;;;;30.01;40.48;96807.97;4235387;28;7686;-69
2022/07/24 23:07:16;;;;;;;;;;;;;;;30.00;40.52;96815.34;4235135;27;5626;-69
2022/07/24 23:09:19;;;;;;;;;;;;;;;29.99;40.48;96802.84;4235072;28;5109;-69
2022/07/24 23:11:25;;;;;;;;;;;;;;;29.98;40.74;96809.44;4235340;28;5692;-68
2022/07/24 23:13:29;;;;;;;;;;;;;;;29.93;40.62;96812.31;4235557;27;5729;-70
2022/07/24 23:15:32;;;;;;;;;;;;;;;29.91;40.81;96811.03;4235196;28;5650;-69
2022/07/24 23:17:35;;;;;;;;;;;;;;;29.89;40.80;96814.03;4235252;27;5654;-70
2022/07/24 23:19:37;;;;;;;;;;;;;;;29.89;40.58;96814.03;4234941;27;5643;-69
2022/07/24 23:21:40;;;;;;;;;;;;;;;29.87;40.67;96813.56;4234952;28;5721;-68
2022/07/24 23:23:43;;;;;;;;;;;;;;;29.85;40.70;96810.34;4235194;28;5739;-69
2022/07/24 23:25:46;;;;;;;;;;;;;;;29.86;40.60;96809.25;4226372;27;5656;-69
2022/07/24 23:27:51;;;;;;;;;;;;;;;29.88;40.75;96809.72;4216591;28;5832;-69
2022/07/24 23:29:53;;;;;;;;;;;;;;;29.89;40.66;96805.88;4216356;28;5676;-68
2022/07/24 23:31:56;;;;;;;;;;;;;;;29.91;40.72;96816.47;4215909;28;5766;-69
2022/07/24 23:33:59;;;;;;;;;;;;;;;29.90;40.69;96815.69;4210614;28;5726;-69
2022/07/24 23:36:02;;;;;;;;;;;;;;;29.86;40.86;96815.50;4217622;28;5683;-68
2022/07/24 23:38:05;;;;;;;;;;;;;;;29.86;40.90;96817.41;4217898;28;5699;-69
2022/07/24 23:40:09;;;;;;;;;;;;;;;29.86;40.97;96814.69;4207009;28;5696;-68
2022/07/24 23:42:13;;;;;;;;;;;;;;;29.86;40.99;96811.97;4209654;28;5097;-68
2022/07/24 23:44:17;;;;;;;;;;;;;;;29.83;41.03;96807.16;4221448;28;5726;-68
2022/07/24 23:46:20;;;;;;;;;;;;;;;29.82;41.17;96813.72;4222236;27;5806;-68
2022/07/24 23:48:23;;;;;;;;;;;;;;;29.80;41.33;96813.25;4217727;28;5678;-68
2022/07/24 23:50:26;;;;;;;;;;;;;;;29.77;41.54;96811.13;4217552;28;5679;-68
2022/07/24 23:52:29;;;;;;;;;;;;;;;29.77;41.61;96816.59;4222585;28;5769;-68
